createdAt,value
2023-03-20T00:02:24.391Z,4.14
2023-03-20T00:04:55.536Z,4.20
2023-03-20T00:07:23.181Z,4.23
2023-03-20T00:09:58.042Z,4.25
2023-03-20T00:12:26.639Z,4.30
2023-03-20T00:14:54.639Z,4.28
2023-03-20T00:17:22.602Z,4.26
2023-03-20T00:19:56.328Z,4.26
2023-03-20T00:22:23.984Z,4.31
2023-03-20T00:24:52.695Z,4.25
2023-03-20T00:27:25.888Z,4.18
2023-03-20T00:29:55.038Z,4.14
2023-03-20T00:32:24.134Z,4.17
2023-03-20T00:34:54.424Z,4.21
2023-03-20T00:37:23.351Z,4.07
2023-03-20T00:39:52.221Z,4.12
2023-03-20T00:42:22.846Z,4.08
2023-03-20T00:44:55.938Z,4.18
2023-03-20T00:47:27.414Z,4.20
2023-03-20T00:49:56.348Z,4.19
2023-03-20T00:52:25.287Z,4.22
2023-03-20T00:54:53.005Z,4.20
2023-03-20T00:57:24.312Z,3.98
2023-03-20T00:59:57.549Z,3.93
2023-03-20T01:02:29.071Z,3.88
2023-03-20T01:04:58.272Z,3.89
2023-03-20T01:07:27.816Z,3.95
2023-03-20T01:09:56.349Z,3.82
2023-03-20T01:12:24.125Z,3.88
2023-03-20T01:14:56.026Z,3.95
2023-03-20T01:17:26.374Z,3.97
2023-03-20T01:19:54.284Z,3.86
2023-03-20T01:22:21.835Z,3.91
2023-03-20T01:24:49.376Z,3.95
2023-03-20T01:27:19.684Z,3.99
2023-03-20T01:29:47.735Z,4.00
2023-03-20T01:32:18.448Z,3.93
2023-03-20T01:34:49.296Z,3.86
2023-03-20T01:37:27.933Z,3.73
2023-03-20T01:40:01.257Z,3.64
2023-03-20T01:42:32.305Z,3.62
2023-03-20T01:45:00.107Z,3.57
2023-03-20T01:47:29.195Z,3.56
2023-03-20T01:50:18.741Z,3.58
2023-03-20T01:52:52.430Z,3.62
2023-03-20T01:55:21.258Z,3.55
2023-03-20T01:57:56.417Z,3.63
2023-03-20T02:00:24.229Z,3.67
2023-03-20T02:02:53.164Z,3.64
2023-03-20T02:05:40.985Z,3.69
2023-03-20T02:08:25.957Z,3.60
2023-03-20T02:10:56.382Z,3.68
2023-03-20T02:13:31.482Z,3.75
2023-03-20T02:16:16.251Z,3.66
2023-03-20T02:18:52.300Z,3.56
2023-03-20T02:21:35.699Z,3.57
2023-03-20T02:24:15.563Z,3.66
2023-03-20T02:27:11.223Z,3.82
2023-03-20T02:29:48.312Z,3.87
2023-03-20T02:32:18.993Z,3.82
2023-03-20T02:35:13.983Z,3.84
2023-03-20T02:38:02.228Z,3.70
2023-03-20T02:40:48.193Z,3.71
2023-03-20T02:43:56.586Z,3.73
2023-03-20T02:46:36.544Z,3.77
2023-03-20T02:50:00.703Z,3.75
2023-03-20T02:53:00.032Z,3.83
2023-03-20T02:55:40.149Z,3.78
2023-03-20T02:58:15.099Z,3.77
2023-03-20T03:01:11.593Z,3.78
2023-03-20T03:03:55.960Z,3.80
2023-03-20T03:06:30.049Z,3.84
2023-03-20T03:09:03.281Z,3.80
2023-03-20T03:11:36.459Z,3.68
2023-03-20T03:14:06.002Z,3.56
2023-03-20T03:16:37.767Z,3.55
2023-03-20T03:19:18.373Z,3.67
2023-03-20T03:21:48.096Z,3.73
2023-03-20T03:24:49.123Z,3.76
2023-03-20T03:27:26.214Z,3.72
2023-03-20T03:30:01.026Z,3.58
2023-03-20T03:32:34.311Z,3.54
2023-03-20T03:35:05.617Z,3.55
2023-03-20T03:37:41.296Z,3.53
2023-03-20T03:40:57.150Z,3.61
2023-03-20T03:43:34.558Z,3.59
2023-03-20T03:46:12.725Z,3.60
2023-03-20T03:48:47.724Z,3.64
2023-03-20T03:51:25.257Z,3.69
2023-03-20T03:54:22.703Z,3.60
2023-03-20T03:57:14.588Z,3.66
2023-03-20T03:59:49.965Z,3.65
2023-03-20T04:02:19.831Z,3.64
2023-03-20T04:04:51.743Z,3.65
2023-03-20T04:07:20.010Z,3.65
2023-03-20T04:09:48.007Z,3.66
2023-03-20T04:12:38.228Z,3.61
2023-03-20T04:15:10.898Z,3.70
2023-03-20T04:17:38.908Z,3.75
2023-03-20T04:20:08.268Z,3.78
2023-03-20T04:22:36.350Z,3.75
2023-03-20T04:25:16.353Z,3.78
2023-03-20T04:27:44.017Z,3.76
2023-03-20T04:30:19.602Z,3.72
2023-03-20T04:33:07.394Z,3.80
2023-03-20T04:35:44.506Z,3.77
2023-03-20T04:38:14.910Z,3.75
2023-03-20T04:40:43.530Z,3.75
2023-03-20T04:43:12.896Z,3.71
2023-03-20T04:45:41.783Z,3.70
2023-03-20T04:48:10.666Z,3.76
2023-03-20T04:50:39.481Z,3.69
2023-03-20T04:53:07.296Z,3.68
2023-03-20T04:55:41.699Z,3.65
2023-03-20T04:58:09.405Z,3.73
2023-03-20T05:00:37.083Z,3.76
2023-03-20T05:03:04.858Z,3.81
2023-03-20T05:05:34.443Z,3.70
2023-03-20T05:08:07.221Z,3.64
2023-03-20T05:10:37.610Z,3.63
2023-03-20T05:13:12.042Z,3.65
2023-03-20T05:16:01.315Z,3.60
2023-03-20T05:18:39.817Z,3.62
2023-03-20T05:21:26.720Z,3.55
2023-03-20T05:24:14.634Z,3.62
2023-03-20T05:26:54.633Z,3.69
2023-03-20T05:29:47.981Z,3.86
2023-03-20T05:32:39.090Z,3.80
2023-03-20T05:35:33.179Z,3.82
2023-03-20T05:38:18.215Z,3.96
2023-03-20T05:40:59.338Z,4.00
2023-03-20T05:44:02.074Z,3.73
2023-03-20T05:46:37.509Z,3.70
2023-03-20T05:49:23.686Z,3.71
2023-03-20T05:52:13.074Z,3.76
2023-03-20T05:55:05.955Z,3.78
2023-03-20T05:57:46.875Z,3.76
2023-03-20T06:00:28.113Z,3.64
2023-03-20T06:03:15.991Z,3.58
2023-03-20T06:05:57.124Z,3.52
2023-03-20T06:08:24.892Z,3.47
2023-03-20T06:10:54.927Z,3.47
2023-03-20T06:13:22.818Z,3.47
2023-03-20T06:15:50.552Z,3.64
2023-03-20T06:18:19.174Z,3.80
2023-03-20T06:20:47.104Z,3.80
2023-03-20T06:23:15.014Z,3.86
2023-03-20T06:25:43.046Z,3.84
2023-03-20T06:28:11.010Z,3.77
2023-03-20T06:30:40.595Z,3.92
2023-03-20T06:33:14.197Z,3.88
2023-03-20T06:36:01.445Z,3.71
2023-03-20T06:38:32.489Z,3.84
2023-03-20T06:41:06.992Z,3.72
2023-03-20T06:43:35.474Z,3.68
2023-03-20T06:46:03.703Z,3.79
2023-03-20T06:48:37.358Z,3.89
2023-03-20T06:51:07.990Z,3.88
2023-03-20T06:53:46.869Z,3.87
2023-03-20T06:56:18.568Z,3.94
2023-03-20T06:58:46.857Z,4.01
2023-03-20T07:01:17.810Z,3.95
2023-03-20T07:03:46.872Z,4.05
2023-03-20T07:06:19.249Z,4.05
2023-03-20T07:08:47.118Z,4.00
2023-03-20T07:11:15.477Z,3.92
2023-03-20T07:13:43.251Z,3.83
2023-03-20T07:16:25.870Z,3.86
2023-03-20T07:18:53.905Z,3.80
2023-03-20T07:21:25.582Z,3.79
2023-03-20T07:23:53.765Z,4.00
2023-03-20T07:26:21.499Z,4.03
2023-03-20T07:28:51.525Z,4.09
2023-03-20T07:31:27.010Z,4.15
2023-03-20T07:34:03.549Z,4.18
2023-03-20T07:36:35.684Z,4.13
2023-03-20T07:39:03.737Z,4.11
2023-03-20T07:41:33.095Z,4.03
2023-03-20T07:44:08.034Z,4.12
2023-03-20T07:46:47.366Z,4.19
2023-03-20T07:49:20.494Z,4.31
2023-03-20T07:51:49.693Z,4.46
2023-03-20T07:54:17.848Z,4.65
2023-03-20T07:56:45.845Z,4.60
2023-03-20T07:59:15.471Z,4.64
2023-03-20T08:01:43.114Z,4.85
2023-03-20T08:04:11.523Z,4.92
2023-03-20T08:06:39.750Z,5.04
2023-03-20T08:09:07.744Z,5.20
2023-03-20T08:11:36.202Z,5.31
2023-03-20T08:14:03.996Z,5.42
2023-03-20T08:16:31.934Z,5.43
2023-03-20T08:19:01.980Z,5.34
2023-03-20T08:21:32.213Z,5.62
2023-03-20T08:23:59.739Z,5.80
2023-03-20T08:26:27.323Z,5.63
2023-03-20T08:28:55.966Z,5.42
2023-03-20T08:31:23.461Z,5.43
2023-03-20T08:33:51.420Z,5.46
2023-03-20T08:36:20.926Z,5.55
2023-03-20T08:38:49.654Z,5.49
2023-03-20T08:41:18.242Z,5.64
2023-03-20T08:43:46.335Z,5.63
2023-03-20T08:46:14.046Z,5.53
2023-03-20T08:48:42.137Z,5.66
2023-03-20T08:51:15.105Z,5.65
2023-03-20T08:53:42.894Z,5.87
2023-03-20T08:56:10.750Z,5.81
2023-03-20T08:58:39.846Z,5.82
2023-03-20T09:01:09.255Z,5.88
2023-03-20T09:03:37.837Z,6.03
2023-03-20T09:06:07.699Z,6.03
2023-03-20T09:08:36.102Z,6.16
2023-03-20T09:11:04.743Z,6.08
2023-03-20T09:13:33.223Z,6.23
2023-03-20T09:16:01.007Z,6.36
2023-03-20T09:18:29.513Z,6.42
2023-03-20T09:20:57.339Z,6.56
2023-03-20T09:23:24.923Z,6.52
2023-03-20T09:25:52.446Z,6.28
2023-03-20T09:28:20.360Z,6.45
2023-03-20T09:30:55.944Z,6.52
2023-03-20T09:33:23.964Z,6.48
2023-03-20T09:35:52.593Z,6.48
2023-03-20T09:38:21.227Z,6.52
2023-03-20T09:41:02.894Z,6.63
2023-03-20T09:44:05.723Z,6.60
2023-03-20T09:46:52.813Z,6.58
2023-03-20T09:49:44.476Z,6.56
2023-03-20T09:52:30.203Z,6.54
2023-03-20T09:55:10.696Z,6.54
2023-03-20T09:57:49.816Z,6.64
2023-03-20T10:00:29.771Z,6.41
2023-03-20T10:03:24.766Z,6.46
2023-03-20T10:05:59.942Z,6.52
2023-03-20T10:08:34.123Z,6.63
2023-03-20T10:11:29.894Z,6.83
2023-03-20T10:14:26.179Z,6.68
2023-03-20T10:17:18.330Z,6.61
2023-03-20T10:19:59.136Z,6.58
2023-03-20T10:22:34.747Z,6.83
2023-03-20T10:25:02.236Z,6.89
2023-03-20T10:27:35.043Z,6.91
2023-03-20T10:30:08.861Z,6.84
2023-03-20T10:33:02.663Z,6.89
2023-03-20T10:35:56.529Z,6.65
2023-03-20T10:38:46.240Z,6.80
2023-03-20T10:41:18.905Z,6.77
2023-03-20T10:43:53.070Z,6.77
2023-03-20T10:46:28.607Z,6.74
2023-03-20T10:49:08.540Z,6.82
2023-03-20T10:51:50.874Z,6.80
2023-03-20T10:54:29.841Z,6.71
2023-03-20T10:57:00.599Z,6.58
2023-03-20T10:59:41.168Z,6.55
2023-03-20T11:02:15.743Z,6.54
2023-03-20T11:04:44.055Z,6.44
2023-03-20T11:07:32.300Z,6.25
2023-03-20T11:10:06.209Z,6.14
2023-03-20T11:12:40.544Z,6.34
2023-03-20T11:15:21.213Z,6.36
2023-03-20T11:17:55.235Z,6.63
2023-03-20T11:20:23.076Z,6.82
2023-03-20T11:23:00.041Z,6.91
2023-03-20T11:25:33.835Z,7.03
2023-03-20T11:28:20.825Z,7.00
2023-03-20T11:31:03.947Z,7.00
2023-03-20T11:33:38.447Z,7.02
2023-03-20T11:36:34.791Z,6.74
2023-03-20T11:39:17.466Z,6.88
2023-03-20T11:41:51.127Z,7.06
2023-03-20T11:44:23.555Z,7.11
2023-03-20T11:47:14.987Z,7.28
2023-03-20T11:49:55.404Z,7.39
2023-03-20T11:52:28.797Z,7.52
2023-03-20T11:54:58.835Z,7.48
2023-03-20T11:57:32.292Z,7.47
2023-03-20T12:00:11.544Z,7.12
2023-03-20T12:02:43.515Z,7.18
2023-03-20T12:05:30.176Z,7.29
2023-03-20T12:08:04.031Z,7.35
2023-03-20T12:10:37.504Z,7.45
2023-03-20T12:13:26.308Z,7.49
2023-03-20T12:16:06.324Z,7.75
2023-03-20T12:18:43.583Z,7.43
2023-03-20T12:21:32.091Z,7.51
2023-03-20T12:24:14.705Z,7.88
2023-03-20T12:27:05.110Z,8.17
2023-03-20T12:29:40.627Z,8.25
2023-03-20T12:32:16.462Z,8.02
2023-03-20T12:34:51.857Z,7.78
2023-03-20T12:37:20.414Z,7.81
2023-03-20T12:39:57.138Z,7.84
2023-03-20T12:43:00.809Z,7.82
2023-03-20T12:45:44.888Z,7.85
2023-03-20T12:48:50.077Z,8.15
2023-03-20T12:51:42.560Z,8.07
2023-03-20T12:54:35.476Z,8.10
2023-03-20T12:57:24.898Z,7.97
2023-03-20T13:00:04.573Z,7.87
2023-03-20T13:02:50.694Z,7.48
2023-03-20T13:05:42.324Z,7.62
2023-03-20T13:08:29.576Z,7.45
2023-03-20T13:11:01.687Z,7.20
2023-03-20T13:13:48.029Z,7.16
2023-03-20T13:17:03.728Z,7.35
2023-03-20T13:19:42.312Z,7.13
2023-03-20T13:22:31.828Z,7.05
2023-03-20T13:25:56.505Z,7.12
2023-03-20T13:28:41.312Z,7.18
2023-03-20T13:31:20.369Z,7.04
2023-03-20T13:34:22.662Z,7.08
2023-03-20T13:37:21.979Z,7.02
2023-03-20T13:40:03.297Z,7.14
2023-03-20T13:42:38.186Z,7.09
2023-03-20T13:45:35.153Z,7.04
2023-03-20T13:48:19.946Z,7.01
2023-03-20T13:51:02.237Z,7.08
2023-03-20T13:53:33.640Z,7.03
2023-03-20T13:56:15.984Z,7.05
2023-03-20T13:58:59.131Z,7.13
2023-03-20T14:01:41.594Z,7.16
2023-03-20T14:04:16.172Z,7.10
2023-03-20T14:06:49.025Z,7.11
2023-03-20T14:09:30.971Z,7.18
2023-03-20T14:12:11.683Z,7.25
2023-03-20T14:14:46.317Z,7.27
2023-03-20T14:17:22.008Z,7.24
2023-03-20T14:19:51.606Z,7.10
2023-03-20T14:22:34.481Z,7.20
2023-03-20T14:25:14.036Z,7.44
2023-03-20T14:27:58.702Z,7.47
2023-03-20T14:30:47.669Z,7.68
2023-03-20T14:33:22.423Z,7.64
2023-03-20T14:36:11.562Z,7.36
2023-03-20T14:38:55.161Z,7.33
2023-03-20T14:41:45.949Z,7.20
2023-03-20T14:44:30.925Z,7.30
2023-03-20T14:47:05.526Z,7.33
2023-03-20T14:49:42.528Z,7.33
2023-03-20T14:52:20.002Z,7.37
2023-03-20T14:54:54.428Z,7.25
2023-03-20T14:57:56.447Z,7.04
2023-03-20T15:00:33.609Z,6.93
2023-03-20T15:03:15.518Z,6.96
2023-03-20T15:05:44.531Z,7.04
2023-03-20T15:08:33.697Z,7.06
2023-03-20T15:11:08.082Z,6.84
2023-03-20T15:13:37.817Z,6.80
2023-03-20T15:16:09.030Z,6.79
2023-03-20T15:18:45.950Z,6.66
2023-03-20T15:21:21.108Z,6.62
2023-03-20T15:23:49.158Z,6.56
2023-03-20T15:26:20.559Z,6.60
2023-03-20T15:28:49.467Z,6.60
2023-03-20T15:31:38.587Z,6.62
2023-03-20T15:34:17.269Z,6.57
2023-03-20T15:36:45.764Z,6.53
2023-03-20T15:39:13.581Z,6.51
2023-03-20T15:41:46.332Z,6.38
2023-03-20T15:44:37.216Z,6.37
2023-03-20T15:47:11.418Z,6.35
2023-03-20T15:49:41.247Z,6.39
2023-03-20T15:52:54.166Z,6.39
2023-03-20T15:55:24.790Z,6.25
2023-03-20T15:57:56.275Z,6.26
2023-03-20T16:00:31.567Z,6.25
2023-03-20T16:03:01.721Z,6.16
2023-03-20T16:05:30.709Z,6.10
2023-03-20T16:08:12.386Z,6.13
2023-03-20T16:10:43.328Z,6.03
2023-03-20T16:13:17.237Z,5.99
2023-03-20T16:15:46.531Z,6.00
2023-03-20T16:18:16.844Z,6.02
2023-03-20T16:21:02.200Z,5.97
2023-03-20T16:23:38.927Z,5.88
2023-03-20T16:26:11.915Z,5.89
2023-03-20T16:28:39.607Z,5.85
2023-03-20T16:31:16.322Z,5.84
2023-03-20T16:33:45.319Z,5.84
2023-03-20T16:36:22.689Z,5.84
2023-03-20T16:39:22.248Z,5.85
2023-03-20T16:42:09.147Z,5.77
2023-03-20T16:44:38.177Z,5.76
2023-03-20T16:47:23.532Z,5.73
2023-03-20T16:49:54.335Z,5.79
2023-03-20T16:52:28.639Z,5.83
2023-03-20T16:54:58.223Z,5.79
2023-03-20T16:57:28.821Z,5.81
2023-03-20T17:00:04.755Z,5.80
2023-03-20T17:02:38.327Z,5.73
2023-03-20T17:05:12.275Z,5.69
2023-03-20T17:07:42.637Z,5.64
2023-03-20T17:10:20.216Z,5.61
2023-03-20T17:12:49.881Z,5.58
2023-03-20T17:15:22.639Z,5.53
2023-03-20T17:17:51.564Z,5.52
2023-03-20T17:20:29.063Z,5.50
2023-03-20T17:22:57.078Z,5.47
2023-03-20T17:25:24.835Z,5.44
2023-03-20T17:27:52.869Z,5.31
2023-03-20T17:30:25.105Z,5.29
2023-03-20T17:32:53.322Z,5.29
2023-03-20T17:35:21.423Z,5.29
2023-03-20T17:37:49.464Z,5.33
2023-03-20T17:40:22.739Z,5.30
2023-03-20T17:42:50.500Z,5.31
2023-03-20T17:45:24.105Z,5.33
2023-03-20T17:47:52.706Z,5.31
2023-03-20T17:50:27.594Z,5.27
2023-03-20T17:52:55.414Z,5.23
2023-03-20T17:55:23.250Z,5.22
2023-03-20T17:57:51.836Z,5.18
2023-03-20T18:00:24.764Z,5.17
2023-03-20T18:02:53.054Z,5.20
2023-03-20T18:05:21.283Z,5.21
2023-03-20T18:07:49.052Z,5.24
2023-03-20T18:10:25.349Z,5.24
2023-03-20T18:12:53.108Z,5.25
2023-03-20T18:15:24.025Z,5.14
2023-03-20T18:17:51.526Z,5.06
2023-03-20T18:20:32.371Z,5.02
2023-03-20T18:23:00.973Z,5.04
2023-03-20T18:25:30.170Z,5.07
2023-03-20T18:28:00.272Z,5.11
2023-03-20T18:30:37.904Z,5.12
2023-03-20T18:33:09.086Z,5.13
2023-03-20T18:35:37.706Z,5.10
2023-03-20T18:38:06.017Z,5.02
2023-03-20T18:40:36.531Z,4.98
2023-03-20T18:43:05.181Z,4.92
2023-03-20T18:45:33.001Z,4.98
2023-03-20T18:48:20.296Z,4.96
2023-03-20T18:50:51.106Z,4.94
2023-03-20T18:53:20.647Z,4.92
2023-03-20T18:55:48.373Z,4.99
2023-03-20T18:58:24.893Z,4.96
2023-03-20T19:00:56.027Z,4.88
2023-03-20T19:03:24.779Z,4.86
2023-03-20T19:05:53.730Z,4.86
2023-03-20T19:08:22.129Z,4.83
2023-03-20T19:10:52.408Z,4.88
2023-03-20T19:13:22.606Z,4.89
2023-03-20T19:15:50.610Z,4.93
2023-03-20T19:18:27.182Z,5.01
2023-03-20T19:20:57.943Z,5.05
2023-03-20T19:23:29.104Z,5.05
2023-03-20T19:25:57.213Z,4.97
2023-03-20T19:28:38.792Z,4.93
2023-03-20T19:31:12.404Z,4.84
2023-03-20T19:33:41.128Z,4.88
2023-03-20T19:36:23.123Z,4.78
2023-03-20T19:38:51.957Z,4.75
2023-03-20T19:41:20.201Z,4.75
2023-03-20T19:43:52.882Z,4.75
2023-03-20T19:46:41.562Z,4.79
2023-03-20T19:49:30.190Z,4.69
2023-03-20T19:51:58.566Z,4.70
2023-03-20T19:54:28.628Z,4.72
2023-03-20T19:56:56.778Z,4.74
2023-03-20T19:59:25.774Z,4.68
2023-03-20T20:01:54.201Z,4.65
2023-03-20T20:04:21.864Z,4.61
2023-03-20T20:06:49.891Z,4.58
2023-03-20T20:09:18.188Z,4.59
2023-03-20T20:11:46.206Z,4.52
2023-03-20T20:14:15.271Z,4.48
2023-03-20T20:16:45.757Z,4.47
2023-03-20T20:19:13.672Z,4.46
2023-03-20T20:24:31.154Z,4.36
2023-03-20T20:27:16.207Z,4.36
2023-03-20T20:29:52.712Z,4.34
2023-03-20T20:32:24.614Z,4.34
2023-03-20T20:40:31.513Z,4.23
2023-03-20T20:43:02.004Z,4.23
2023-03-20T20:45:43.794Z,4.18
2023-03-20T20:48:12.855Z,4.14
2023-03-20T20:50:43.332Z,4.12
2023-03-20T20:53:12.855Z,4.09
2023-03-20T20:55:41.698Z,4.09
2023-03-20T20:58:11.426Z,4.04
2023-03-20T21:00:50.610Z,4.07
2023-03-20T21:03:20.878Z,4.03
2023-03-20T21:05:49.206Z,4.01
2023-03-20T21:08:18.579Z,3.94
2023-03-20T21:10:47.306Z,3.96
2023-03-20T21:13:16.043Z,3.98
2023-03-20T21:15:45.756Z,3.88
2023-03-20T21:18:19.650Z,3.80
2023-03-20T21:20:47.272Z,3.77
2023-03-20T21:23:14.884Z,3.78
2023-03-20T21:25:47.617Z,3.80
2023-03-20T21:28:16.541Z,3.77
2023-03-20T21:31:08.903Z,3.76
2023-03-20T21:33:34.517Z,3.77
2023-03-20T21:36:03.146Z,3.75
2023-03-20T21:39:06.016Z,3.73
2023-03-20T21:41:18.934Z,3.72
2023-03-20T21:43:47.392Z,3.75
2023-03-20T21:52:45.823Z,3.57
2023-03-20T21:56:09.305Z,3.38
2023-03-20T22:01:14.471Z,3.32
2023-03-20T22:03:10.898Z,3.22
2023-03-20T22:06:14.425Z,3.28
2023-03-20T22:12:01.602Z,3.43
2023-03-20T22:28:55.187Z,3.37
2023-03-20T22:42:48.967Z,3.23
2023-03-20T22:45:03.275Z,3.24
2023-03-20T22:47:32.827Z,3.21
2023-03-20T22:50:00.404Z,3.19
2023-03-20T22:52:38.348Z,3.24
2023-03-20T22:55:17.529Z,3.23
2023-03-20T22:58:00.031Z,3.29
2023-03-20T23:00:40.070Z,3.25
2023-03-20T23:03:22.404Z,3.24
2023-03-20T23:05:56.524Z,3.23
2023-03-20T23:08:24.976Z,3.23
2023-03-20T23:10:52.714Z,3.19
2023-03-20T23:13:22.542Z,3.19
2023-03-20T23:15:50.895Z,3.17
2023-03-20T23:18:18.748Z,3.12
2023-03-20T23:20:46.440Z,3.18
2023-03-20T23:23:14.057Z,3.15
2023-03-20T23:25:41.949Z,3.14
2023-03-20T23:28:12.411Z,3.14
2023-03-20T23:30:56.745Z,3.15
2023-03-20T23:33:27.854Z,3.12
2023-03-20T23:36:12.517Z,3.07
2023-03-20T23:38:44.350Z,3.03
2023-03-20T23:41:12.817Z,3.04
2023-03-20T23:43:40.525Z,3.00
2023-03-20T23:46:10.690Z,3.02
2023-03-20T23:48:39.337Z,2.97
2023-03-20T23:51:07.880Z,3.02
2023-03-20T23:53:35.792Z,2.99
2023-03-20T23:56:04.087Z,2.95
2023-03-20T23:58:31.977Z,2.95
